sensor_id;sensor_type;location;lat;lon;timestamp;temperature;humidity
13682;DHT22;6913;49.892;7.936;2023-04-12T00:02:23;9.90;99.90
13682;DHT22;6913;49.892;7.936;2023-04-12T00:04:51;9.80;99.90
13682;DHT22;6913;49.892;7.936;2023-04-12T00:07:22;9.90;99.90
13682;DHT22;6913;49.892;7.936;2023-04-12T00:09:50;10.00;99.90
13682;DHT22;6913;49.892;7.936;2023-04-12T00:12:17;9.90;99.90
13682;DHT22;6913;49.892;7.936;2023-04-12T00:14:45;9.90;99.90
13682;DHT22;6913;49.892;7.936;2023-04-12T00:17:13;9.90;99.90
13682;DHT22;6913;49.892;7.936;2023-04-12T00:19:41;9.80;99.90
13682;DHT22;6913;49.892;7.936;2023-04-12T00:22:09;9.90;99.90
13682;DHT22;6913;49.892;7.936;2023-04-12T00:24:37;9.90;99.90
13682;DHT22;6913;49.892;7.936;2023-04-12T00:27:05;9.80;99.90
13682;DHT22;6913;49.892;7.936;2023-04-12T00:29:32;9.80;99.90
13682;DHT22;6913;49.892;7.936;2023-04-12T00:31:59;9.90;99.90
13682;DHT22;6913;49.892;7.936;2023-04-12T00:34:28;9.90;99.90
13682;DHT22;6913;49.892;7.936;2023-04-12T00:36:56;10.30;99.90
13682;DHT22;6913;49.892;7.936;2023-04-12T00:39:23;9.80;99.90
13682;DHT22;6913;49.892;7.936;2023-04-12T00:41:50;9.80;99.90
13682;DHT22;6913;49.892;7.936;2023-04-12T00:44:17;9.80;99.90
13682;DHT22;6913;49.892;7.936;2023-04-12T00:46:44;9.60;99.90
13682;DHT22;6913;49.892;7.936;2023-04-12T00:49:12;9.60;99.90
13682;DHT22;6913;49.892;7.936;2023-04-12T00:51:40;9.50;99.90
13682;DHT22;6913;49.892;7.936;2023-04-12T00:54:08;9.50;99.90
13682;DHT22;6913;49.892;7.936;2023-04-12T00:56:36;9.30;99.90
13682;DHT22;6913;49.892;7.936;2023-04-12T00:59:04;9.50;99.90
13682;DHT22;6913;49.892;7.936;2023-04-12T01:01:32;9.30;99.90
13682;DHT22;6913;49.892;7.936;2023-04-12T01:03:59;9.30;99.90
13682;DHT22;6913;49.892;7.936;2023-04-12T01:06:40;9.30;99.90
13682;DHT22;6913;49.892;7.936;2023-04-12T01:09:21;9.20;99.90
13682;DHT22;6913;49.892;7.936;2023-04-12T01:12:01;9.20;99.90
13682;DHT22;6913;49.892;7.936;2023-04-12T01:14:41;9.50;99.90
13682;DHT22;6913;49.892;7.936;2023-04-12T01:17:12;9.20;99.90
13682;DHT22;6913;49.892;7.936;2023-04-12T01:19:53;9.10;99.90
13682;DHT22;6913;49.892;7.936;2023-04-12T01:22:44;9.10;99.90
13682;DHT22;6913;49.892;7.936;2023-04-12T01:25:26;9.00;99.90
13682;DHT22;6913;49.892;7.936;2023-04-12T01:28:01;9.00;99.90
13682;DHT22;6913;49.892;7.936;2023-04-12T01:30:28;9.00;99.90
13682;DHT22;6913;49.892;7.936;2023-04-12T01:32:59;9.00;99.90
13682;DHT22;6913;49.892;7.936;2023-04-12T01:35:28;8.80;99.90
13682;DHT22;6913;49.892;7.936;2023-04-12T01:37:56;8.70;99.90
13682;DHT22;6913;49.892;7.936;2023-04-12T01:40:24;8.70;99.90
13682;DHT22;6913;49.892;7.936;2023-04-12T01:43:04;8.70;99.90
13682;DHT22;6913;49.892;7.936;2023-04-12T01:45:31;8.90;99.90
13682;DHT22;6913;49.892;7.936;2023-04-12T01:47:58;8.60;99.90
13682;DHT22;6913;49.892;7.936;2023-04-12T01:50:32;8.60;99.90
13682;DHT22;6913;49.892;7.936;2023-04-12T01:53:03;8.50;99.90
13682;DHT22;6913;49.892;7.936;2023-04-12T01:55:37;8.90;99.90
13682;DHT22;6913;49.892;7.936;2023-04-12T01:58:06;8.60;99.90
13682;DHT22;6913;49.892;7.936;2023-04-12T02:00:36;8.60;99.90
13682;DHT22;6913;49.892;7.936;2023-04-12T02:03:04;8.60;99.90
13682;DHT22;6913;49.892;7.936;2023-04-12T02:05:31;8.50;99.90
13682;DHT22;6913;49.892;7.936;2023-04-12T02:08:00;8.50;99.90
13682;DHT22;6913;49.892;7.936;2023-04-12T02:10:27;8.90;99.90
13682;DHT22;6913;49.892;7.936;2023-04-12T02:12:57;9.20;99.90
13682;DHT22;6913;49.892;7.936;2023-04-12T02:15:25;8.70;99.90
13682;DHT22;6913;49.892;7.936;2023-04-12T02:17:52;8.80;99.90
13682;DHT22;6913;49.892;7.936;2023-04-12T02:20:20;8.70;99.90
13682;DHT22;6913;49.892;7.936;2023-04-12T02:22:47;9.10;99.90
13682;DHT22;6913;49.892;7.936;2023-04-12T02:25:14;9.10;99.90
13682;DHT22;6913;49.892;7.936;2023-04-12T02:27:42;8.80;99.90
13682;DHT22;6913;49.892;7.936;2023-04-12T02:30:09;8.80;99.90
13682;DHT22;6913;49.892;7.936;2023-04-12T02:32:38;8.80;99.90
13682;DHT22;6913;49.892;7.936;2023-04-12T02:35:09;8.70;99.90
13682;DHT22;6913;49.892;7.936;2023-04-12T02:37:36;8.70;99.90
13682;DHT22;6913;49.892;7.936;2023-04-12T02:40:04;8.60;99.90
13682;DHT22;6913;49.892;7.936;2023-04-12T02:42:34;8.70;99.90
13682;DHT22;6913;49.892;7.936;2023-04-12T02:45:01;8.70;99.90
13682;DHT22;6913;49.892;7.936;2023-04-12T02:47:28;8.80;99.90
13682;DHT22;6913;49.892;7.936;2023-04-12T02:49:56;8.60;99.90
13682;DHT22;6913;49.892;7.936;2023-04-12T02:52:23;8.60;99.90
13682;DHT22;6913;49.892;7.936;2023-04-12T02:54:50;8.50;99.90
13682;DHT22;6913;49.892;7.936;2023-04-12T02:57:17;8.40;99.90
13682;DHT22;6913;49.892;7.936;2023-04-12T02:59:45;8.30;99.90
13682;DHT22;6913;49.892;7.936;2023-04-12T03:02:13;8.70;99.90
13682;DHT22;6913;49.892;7.936;2023-04-12T03:04:40;8.20;99.90
13682;DHT22;6913;49.892;7.936;2023-04-12T03:07:12;8.20;99.90
13682;DHT22;6913;49.892;7.936;2023-04-12T03:09:39;8.20;99.90
13682;DHT22;6913;49.892;7.936;2023-04-12T03:12:07;8.20;99.90
13682;DHT22;6913;49.892;7.936;2023-04-12T03:14:33;8.30;99.90
13682;DHT22;6913;49.892;7.936;2023-04-12T03:17:00;8.20;99.90
13682;DHT22;6913;49.892;7.936;2023-04-12T03:19:27;8.50;99.90
13682;DHT22;6913;49.892;7.936;2023-04-12T03:21:57;8.20;99.90
13682;DHT22;6913;49.892;7.936;2023-04-12T03:24:25;8.20;99.90
13682;DHT22;6913;49.892;7.936;2023-04-12T03:26:52;8.20;99.90
13682;DHT22;6913;49.892;7.936;2023-04-12T03:29:20;8.10;99.90
13682;DHT22;6913;49.892;7.936;2023-04-12T03:31:47;8.10;99.90
13682;DHT22;6913;49.892;7.936;2023-04-12T03:34:14;8.20;99.90
13682;DHT22;6913;49.892;7.936;2023-04-12T03:36:40;8.10;99.90
13682;DHT22;6913;49.892;7.936;2023-04-12T03:39:07;8.10;99.90
13682;DHT22;6913;49.892;7.936;2023-04-12T03:41:35;8.20;99.90
13682;DHT22;6913;49.892;7.936;2023-04-12T03:44:02;8.10;99.90
13682;DHT22;6913;49.892;7.936;2023-04-12T03:46:29;8.10;99.90
13682;DHT22;6913;49.892;7.936;2023-04-12T03:48:56;8.10;99.90
13682;DHT22;6913;49.892;7.936;2023-04-12T03:51:23;8.00;99.90
13682;DHT22;6913;49.892;7.936;2023-04-12T03:53:51;8.10;99.90
13682;DHT22;6913;49.892;7.936;2023-04-12T03:56:18;8.10;99.90
13682;DHT22;6913;49.892;7.936;2023-04-12T03:58:47;7.90;99.90
13682;DHT22;6913;49.892;7.936;2023-04-12T04:01:14;7.90;99.90
13682;DHT22;6913;49.892;7.936;2023-04-12T04:03:42;7.90;99.90
13682;DHT22;6913;49.892;7.936;2023-04-12T04:06:09;7.80;99.90
13682;DHT22;6913;49.892;7.936;2023-04-12T04:08:36;7.90;99.90
13682;DHT22;6913;49.892;7.936;2023-04-12T04:11:04;7.90;99.90
13682;DHT22;6913;49.892;7.936;2023-04-12T04:13:31;7.80;99.90
13682;DHT22;6913;49.892;7.936;2023-04-12T04:16:03;8.00;99.90
13682;DHT22;6913;49.892;7.936;2023-04-12T04:18:31;7.80;99.90
13682;DHT22;6913;49.892;7.936;2023-04-12T04:21:00;7.80;99.90
13682;DHT22;6913;49.892;7.936;2023-04-12T04:23:27;7.80;99.90
13682;DHT22;6913;49.892;7.936;2023-04-12T04:25:55;7.80;99.90
13682;DHT22;6913;49.892;7.936;2023-04-12T04:28:21;7.80;99.90
13682;DHT22;6913;49.892;7.936;2023-04-12T04:30:49;7.70;99.90
13682;DHT22;6913;49.892;7.936;2023-04-12T04:33:21;7.70;99.90
13682;DHT22;6913;49.892;7.936;2023-04-12T04:35:48;7.70;99.90
13682;DHT22;6913;49.892;7.936;2023-04-12T04:38:16;7.80;99.90
13682;DHT22;6913;49.892;7.936;2023-04-12T04:40:44;7.80;99.90
13682;DHT22;6913;49.892;7.936;2023-04-12T04:43:12;7.80;99.90
13682;DHT22;6913;49.892;7.936;2023-04-12T04:45:43;7.90;99.90
13682;DHT22;6913;49.892;7.936;2023-04-12T04:48:10;7.90;99.90
13682;DHT22;6913;49.892;7.936;2023-04-12T04:50:38;8.40;99.90
13682;DHT22;6913;49.892;7.936;2023-04-12T04:53:05;7.80;99.90
13682;DHT22;6913;49.892;7.936;2023-04-12T04:55:32;7.80;99.90
13682;DHT22;6913;49.892;7.936;2023-04-12T04:57:59;7.80;99.90
13682;DHT22;6913;49.892;7.936;2023-04-12T05:00:26;7.90;99.90
13682;DHT22;6913;49.892;7.936;2023-04-12T05:02:53;7.90;99.90
13682;DHT22;6913;49.892;7.936;2023-04-12T05:05:20;7.90;99.90
13682;DHT22;6913;49.892;7.936;2023-04-12T05:07:49;7.90;99.90
13682;DHT22;6913;49.892;7.936;2023-04-12T05:10:15;7.90;99.90
13682;DHT22;6913;49.892;7.936;2023-04-12T05:12:42;8.00;99.90
13682;DHT22;6913;49.892;7.936;2023-04-12T05:15:09;8.00;99.90
13682;DHT22;6913;49.892;7.936;2023-04-12T05:17:36;8.00;99.90
13682;DHT22;6913;49.892;7.936;2023-04-12T05:20:04;8.00;99.90
13682;DHT22;6913;49.892;7.936;2023-04-12T05:22:32;8.00;99.90
13682;DHT22;6913;49.892;7.936;2023-04-12T05:25:00;8.00;99.90
13682;DHT22;6913;49.892;7.936;2023-04-12T05:27:28;8.10;99.90
13682;DHT22;6913;49.892;7.936;2023-04-12T05:29:55;8.10;99.90
13682;DHT22;6913;49.892;7.936;2023-04-12T05:32:23;8.20;99.90
13682;DHT22;6913;49.892;7.936;2023-04-12T05:34:50;8.20;99.90
13682;DHT22;6913;49.892;7.936;2023-04-12T05:37:17;8.20;99.90
13682;DHT22;6913;49.892;7.936;2023-04-12T05:39:44;8.20;99.90
13682;DHT22;6913;49.892;7.936;2023-04-12T05:42:12;8.10;99.90
13682;DHT22;6913;49.892;7.936;2023-04-12T05:44:39;8.50;99.90
13682;DHT22;6913;49.892;7.936;2023-04-12T05:47:06;8.30;99.90
13682;DHT22;6913;49.892;7.936;2023-04-12T05:49:33;8.60;99.90
13682;DHT22;6913;49.892;7.936;2023-04-12T05:52:00;8.60;99.90
13682;DHT22;6913;49.892;7.936;2023-04-12T05:54:27;8.30;99.90
13682;DHT22;6913;49.892;7.936;2023-04-12T05:56:54;8.20;99.90
13682;DHT22;6913;49.892;7.936;2023-04-12T05:59:22;8.50;99.90
13682;DHT22;6913;49.892;7.936;2023-04-12T06:01:49;8.30;99.90
13682;DHT22;6913;49.892;7.936;2023-04-12T06:04:16;8.30;99.90
13682;DHT22;6913;49.892;7.936;2023-04-12T06:06:42;8.40;99.90
13682;DHT22;6913;49.892;7.936;2023-04-12T06:09:09;8.40;99.90
13682;DHT22;6913;49.892;7.936;2023-04-12T06:11:36;8.30;99.90
13682;DHT22;6913;49.892;7.936;2023-04-12T06:14:03;8.40;99.90
13682;DHT22;6913;49.892;7.936;2023-04-12T06:16:32;8.30;99.90
13682;DHT22;6913;49.892;7.936;2023-04-12T06:18:59;8.30;99.90
13682;DHT22;6913;49.892;7.936;2023-04-12T06:21:26;8.30;99.90
13682;DHT22;6913;49.892;7.936;2023-04-12T06:23:52;8.30;99.90
13682;DHT22;6913;49.892;7.936;2023-04-12T06:26:19;8.30;99.90
13682;DHT22;6913;49.892;7.936;2023-04-12T06:28:46;8.30;99.90
13682;DHT22;6913;49.892;7.936;2023-04-12T06:31:15;8.30;99.90
13682;DHT22;6913;49.892;7.936;2023-04-12T06:33:43;8.40;99.90
13682;DHT22;6913;49.892;7.936;2023-04-12T06:36:10;8.30;99.90
13682;DHT22;6913;49.892;7.936;2023-04-12T06:38:39;8.40;99.90
13682;DHT22;6913;49.892;7.936;2023-04-12T06:41:05;8.40;99.90
13682;DHT22;6913;49.892;7.936;2023-04-12T06:43:33;8.40;99.90
13682;DHT22;6913;49.892;7.936;2023-04-12T06:46:00;8.40;99.90
13682;DHT22;6913;49.892;7.936;2023-04-12T06:48:27;8.50;99.90
13682;DHT22;6913;49.892;7.936;2023-04-12T06:50:56;8.50;99.90
13682;DHT22;6913;49.892;7.936;2023-04-12T06:53:23;8.50;99.90
13682;DHT22;6913;49.892;7.936;2023-04-12T06:55:50;8.50;99.90
13682;DHT22;6913;49.892;7.936;2023-04-12T06:58:18;8.50;99.90
13682;DHT22;6913;49.892;7.936;2023-04-12T07:00:45;8.70;99.90
13682;DHT22;6913;49.892;7.936;2023-04-12T07:03:11;8.80;99.90
13682;DHT22;6913;49.892;7.936;2023-04-12T07:05:38;9.10;99.90
13682;DHT22;6913;49.892;7.936;2023-04-12T07:08:07;8.60;99.90
13682;DHT22;6913;49.892;7.936;2023-04-12T07:10:35;8.30;99.90
13682;DHT22;6913;49.892;7.936;2023-04-12T07:13:02;8.60;99.90
13682;DHT22;6913;49.892;7.936;2023-04-12T07:15:31;9.80;99.90
13682;DHT22;6913;49.892;7.936;2023-04-12T07:17:58;8.60;99.90
13682;DHT22;6913;49.892;7.936;2023-04-12T07:20:25;8.60;99.90
13682;DHT22;6913;49.892;7.936;2023-04-12T07:22:52;9.30;99.90
13682;DHT22;6913;49.892;7.936;2023-04-12T07:25:20;9.00;99.90
13682;DHT22;6913;49.892;7.936;2023-04-12T07:27:47;8.70;99.90
13682;DHT22;6913;49.892;7.936;2023-04-12T07:30:14;7.70;99.90
13682;DHT22;6913;49.892;7.936;2023-04-12T07:32:41;8.70;99.90
13682;DHT22;6913;49.892;7.936;2023-04-12T07:35:08;8.60;99.90
13682;DHT22;6913;49.892;7.936;2023-04-12T07:37:36;8.70;99.90
13682;DHT22;6913;49.892;7.936;2023-04-12T07:40:04;8.80;99.90
13682;DHT22;6913;49.892;7.936;2023-04-12T07:42:33;8.80;99.90
13682;DHT22;6913;49.892;7.936;2023-04-12T07:44:59;8.80;99.90
13682;DHT22;6913;49.892;7.936;2023-04-12T07:47:26;9.10;99.90
13682;DHT22;6913;49.892;7.936;2023-04-12T07:49:53;8.80;99.90
13682;DHT22;6913;49.892;7.936;2023-04-12T07:52:21;8.80;99.90
13682;DHT22;6913;49.892;7.936;2023-04-12T07:54:48;8.90;99.90
13682;DHT22;6913;49.892;7.936;2023-04-12T07:57:15;9.00;99.90
13682;DHT22;6913;49.892;7.936;2023-04-12T07:59:44;9.00;99.90
13682;DHT22;6913;49.892;7.936;2023-04-12T08:02:11;9.10;99.90
13682;DHT22;6913;49.892;7.936;2023-04-12T08:04:38;9.10;99.90
13682;DHT22;6913;49.892;7.936;2023-04-12T08:07:08;9.40;99.90
13682;DHT22;6913;49.892;7.936;2023-04-12T08:09:35;9.10;99.90
13682;DHT22;6913;49.892;7.936;2023-04-12T08:12:03;9.20;99.90
13682;DHT22;6913;49.892;7.936;2023-04-12T08:14:30;9.20;99.90
13682;DHT22;6913;49.892;7.936;2023-04-12T08:16:58;9.20;99.90
13682;DHT22;6913;49.892;7.936;2023-04-12T08:19:25;9.20;99.90
13682;DHT22;6913;49.892;7.936;2023-04-12T08:21:52;9.20;99.90
13682;DHT22;6913;49.892;7.936;2023-04-12T08:24:19;9.20;99.90
13682;DHT22;6913;49.892;7.936;2023-04-12T08:26:46;9.20;99.90
13682;DHT22;6913;49.892;7.936;2023-04-12T08:29:13;9.30;99.90
13682;DHT22;6913;49.892;7.936;2023-04-12T08:31:40;9.30;99.90
13682;DHT22;6913;49.892;7.936;2023-04-12T08:34:08;9.30;99.90
13682;DHT22;6913;49.892;7.936;2023-04-12T08:36:35;9.30;99.90
13682;DHT22;6913;49.892;7.936;2023-04-12T08:39:02;9.40;99.90
13682;DHT22;6913;49.892;7.936;2023-04-12T08:41:29;9.40;99.90
13682;DHT22;6913;49.892;7.936;2023-04-12T08:43:56;9.40;99.90
13682;DHT22;6913;49.892;7.936;2023-04-12T08:46:25;9.40;99.90
13682;DHT22;6913;49.892;7.936;2023-04-12T08:48:52;9.50;99.90
13682;DHT22;6913;49.892;7.936;2023-04-12T08:51:21;9.50;99.90
13682;DHT22;6913;49.892;7.936;2023-04-12T08:53:48;9.50;99.90
13682;DHT22;6913;49.892;7.936;2023-04-12T08:56:15;10.10;99.90
13682;DHT22;6913;49.892;7.936;2023-04-12T08:58:45;9.60;99.90
13682;DHT22;6913;49.892;7.936;2023-04-12T09:01:14;9.70;99.90
13682;DHT22;6913;49.892;7.936;2023-04-12T09:03:41;9.70;99.90
13682;DHT22;6913;49.892;7.936;2023-04-12T09:06:09;9.80;99.90
13682;DHT22;6913;49.892;7.936;2023-04-12T09:08:50;10.10;99.90
13682;DHT22;6913;49.892;7.936;2023-04-12T09:11:24;9.90;99.90
13682;DHT22;6913;49.892;7.936;2023-04-12T09:13:51;9.90;99.90
13682;DHT22;6913;49.892;7.936;2023-04-12T09:16:36;9.90;99.90
13682;DHT22;6913;49.892;7.936;2023-04-12T09:19:03;10.00;99.90
13682;DHT22;6913;49.892;7.936;2023-04-12T09:21:30;10.00;99.90
13682;DHT22;6913;49.892;7.936;2023-04-12T09:24:08;10.10;99.90
13682;DHT22;6913;49.892;7.936;2023-04-12T09:26:36;10.40;99.90
13682;DHT22;6913;49.892;7.936;2023-04-12T09:29:03;10.40;99.90
13682;DHT22;6913;49.892;7.936;2023-04-12T09:31:30;10.20;99.90
13682;DHT22;6913;49.892;7.936;2023-04-12T09:34:05;10.30;99.90
13682;DHT22;6913;49.892;7.936;2023-04-12T09:36:37;10.50;99.90
13682;DHT22;6913;49.892;7.936;2023-04-12T09:39:06;10.40;99.90
13682;DHT22;6913;49.892;7.936;2023-04-12T09:41:33;10.50;99.90
13682;DHT22;6913;49.892;7.936;2023-04-12T09:44:01;10.60;99.90
13682;DHT22;6913;49.892;7.936;2023-04-12T09:46:28;10.90;99.90
13682;DHT22;6913;49.892;7.936;2023-04-12T09:48:56;11.00;99.90
13682;DHT22;6913;49.892;7.936;2023-04-12T09:51:25;10.70;99.90
13682;DHT22;6913;49.892;7.936;2023-04-12T09:53:55;10.80;99.90
13682;DHT22;6913;49.892;7.936;2023-04-12T09:56:27;10.80;99.90
13682;DHT22;6913;49.892;7.936;2023-04-12T09:58:57;10.90;99.90
13682;DHT22;6913;49.892;7.936;2023-04-12T10:01:25;10.90;99.90
13682;DHT22;6913;49.892;7.936;2023-04-12T10:03:53;11.00;99.90
13682;DHT22;6913;49.892;7.936;2023-04-12T10:06:21;11.00;99.90
13682;DHT22;6913;49.892;7.936;2023-04-12T10:08:49;11.00;99.90
13682;DHT22;6913;49.892;7.936;2023-04-12T10:11:16;11.10;99.90
13682;DHT22;6913;49.892;7.936;2023-04-12T10:13:46;11.00;99.90
13682;DHT22;6913;49.892;7.936;2023-04-12T10:16:14;11.10;99.90
13682;DHT22;6913;49.892;7.936;2023-04-12T10:18:42;11.10;99.90
13682;DHT22;6913;49.892;7.936;2023-04-12T10:21:10;11.30;99.90
13682;DHT22;6913;49.892;7.936;2023-04-12T10:23:37;11.70;99.90
13682;DHT22;6913;49.892;7.936;2023-04-12T10:26:04;11.50;99.90
13682;DHT22;6913;49.892;7.936;2023-04-12T10:28:31;11.60;99.90
13682;DHT22;6913;49.892;7.936;2023-04-12T10:31:26;11.60;99.90
13682;DHT22;6913;49.892;7.936;2023-04-12T10:33:54;11.70;99.90
13682;DHT22;6913;49.892;7.936;2023-04-12T10:36:50;11.70;99.90
13682;DHT22;6913;49.892;7.936;2023-04-12T10:39:17;11.80;99.90
13682;DHT22;6913;49.892;7.936;2023-04-12T10:42:15;11.80;99.90
13682;DHT22;6913;49.892;7.936;2023-04-12T10:44:42;11.90;99.90
13682;DHT22;6913;49.892;7.936;2023-04-12T10:47:10;12.00;99.90
13682;DHT22;6913;49.892;7.936;2023-04-12T10:49:38;12.00;99.90
13682;DHT22;6913;49.892;7.936;2023-04-12T10:52:12;12.30;99.90
13682;DHT22;6913;49.892;7.936;2023-04-12T10:54:40;12.20;99.90
13682;DHT22;6913;49.892;7.936;2023-04-12T10:57:42;12.10;99.90
13682;DHT22;6913;49.892;7.936;2023-04-12T11:00:10;12.20;99.90
13682;DHT22;6913;49.892;7.936;2023-04-12T11:03:04;12.20;99.90
13682;DHT22;6913;49.892;7.936;2023-04-12T11:05:58;12.00;99.90
13682;DHT22;6913;49.892;7.936;2023-04-12T11:08:25;12.10;99.90
13682;DHT22;6913;49.892;7.936;2023-04-12T11:10:58;12.10;99.90
13682;DHT22;6913;49.892;7.936;2023-04-12T11:13:28;12.20;99.90
13682;DHT22;6913;49.892;7.936;2023-04-12T11:15:55;12.20;99.90
13682;DHT22;6913;49.892;7.936;2023-04-12T11:18:24;12.30;99.90
13682;DHT22;6913;49.892;7.936;2023-04-12T11:20:51;12.40;99.90
13682;DHT22;6913;49.892;7.936;2023-04-12T11:23:20;12.40;99.90
13682;DHT22;6913;49.892;7.936;2023-04-12T11:25:50;12.50;99.90
13682;DHT22;6913;49.892;7.936;2023-04-12T11:28:18;13.10;99.90
13682;DHT22;6913;49.892;7.936;2023-04-12T11:30:51;13.10;99.90
13682;DHT22;6913;49.892;7.936;2023-04-12T11:33:34;13.20;99.90
13682;DHT22;6913;49.892;7.936;2023-04-12T11:36:04;13.50;99.90
13682;DHT22;6913;49.892;7.936;2023-04-12T11:38:32;13.50;99.90
13682;DHT22;6913;49.892;7.936;2023-04-12T11:41:00;13.60;99.90
13682;DHT22;6913;49.892;7.936;2023-04-12T11:43:27;13.90;99.90
13682;DHT22;6913;49.892;7.936;2023-04-12T11:45:58;13.90;99.90
13682;DHT22;6913;49.892;7.936;2023-04-12T11:48:25;14.00;99.90
13682;DHT22;6913;49.892;7.936;2023-04-12T11:50:53;14.20;99.90
13682;DHT22;6913;49.892;7.936;2023-04-12T11:53:26;14.00;99.90
13682;DHT22;6913;49.892;7.936;2023-04-12T11:55:55;14.10;99.90
13682;DHT22;6913;49.892;7.936;2023-04-12T11:58:22;14.10;99.90
13682;DHT22;6913;49.892;7.936;2023-04-12T12:00:49;14.10;99.90
13682;DHT22;6913;49.892;7.936;2023-04-12T12:03:18;14.10;99.90
13682;DHT22;6913;49.892;7.936;2023-04-12T12:05:45;14.00;99.90
13682;DHT22;6913;49.892;7.936;2023-04-12T12:08:12;14.00;99.90
13682;DHT22;6913;49.892;7.936;2023-04-12T12:10:39;14.10;99.90
13682;DHT22;6913;49.892;7.936;2023-04-12T12:13:09;14.20;99.90
13682;DHT22;6913;49.892;7.936;2023-04-12T12:15:36;14.10;99.90
13682;DHT22;6913;49.892;7.936;2023-04-12T12:18:06;14.10;99.90
13682;DHT22;6913;49.892;7.936;2023-04-12T12:20:40;14.10;99.90
13682;DHT22;6913;49.892;7.936;2023-04-12T12:23:07;14.00;99.90
13682;DHT22;6913;49.892;7.936;2023-04-12T12:25:34;13.90;99.90
13682;DHT22;6913;49.892;7.936;2023-04-12T12:28:01;13.90;99.90
13682;DHT22;6913;49.892;7.936;2023-04-12T12:30:29;13.80;99.90
13682;DHT22;6913;49.892;7.936;2023-04-12T12:32:57;13.90;99.90
13682;DHT22;6913;49.892;7.936;2023-04-12T12:35:24;13.80;99.90
13682;DHT22;6913;49.892;7.936;2023-04-12T12:37:54;13.80;99.90
13682;DHT22;6913;49.892;7.936;2023-04-12T12:40:30;13.70;99.90
13682;DHT22;6913;49.892;7.936;2023-04-12T12:42:57;13.70;99.90
13682;DHT22;6913;49.892;7.936;2023-04-12T12:45:25;13.80;99.90
13682;DHT22;6913;49.892;7.936;2023-04-12T12:47:53;14.00;99.90
13682;DHT22;6913;49.892;7.936;2023-04-12T12:50:22;14.30;99.90
13682;DHT22;6913;49.892;7.936;2023-04-12T12:52:50;14.00;99.90
13682;DHT22;6913;49.892;7.936;2023-04-12T12:55:19;13.90;99.90
13682;DHT22;6913;49.892;7.936;2023-04-12T12:57:47;13.80;99.90
13682;DHT22;6913;49.892;7.936;2023-04-12T13:00:15;13.70;99.90
13682;DHT22;6913;49.892;7.936;2023-04-12T13:02:42;13.60;99.90
13682;DHT22;6913;49.892;7.936;2023-04-12T13:05:10;13.50;99.90
13682;DHT22;6913;49.892;7.936;2023-04-12T13:07:37;13.40;99.90
13682;DHT22;6913;49.892;7.936;2023-04-12T13:10:05;13.30;99.90
13682;DHT22;6913;49.892;7.936;2023-04-12T13:12:34;13.20;99.90
13682;DHT22;6913;49.892;7.936;2023-04-12T13:15:02;13.10;99.90
13682;DHT22;6913;49.892;7.936;2023-04-12T13:17:30;13.10;99.90
13682;DHT22;6913;49.892;7.936;2023-04-12T13:19:57;13.10;99.90
13682;DHT22;6913;49.892;7.936;2023-04-12T13:22:23;13.20;99.90
13682;DHT22;6913;49.892;7.936;2023-04-12T13:24:52;13.20;99.90
13682;DHT22;6913;49.892;7.936;2023-04-12T13:27:19;13.30;99.90
13682;DHT22;6913;49.892;7.936;2023-04-12T13:29:47;13.30;99.90
13682;DHT22;6913;49.892;7.936;2023-04-12T13:32:14;13.40;99.90
13682;DHT22;6913;49.892;7.936;2023-04-12T13:34:42;13.30;99.90
13682;DHT22;6913;49.892;7.936;2023-04-12T13:37:08;13.50;99.90
13682;DHT22;6913;49.892;7.936;2023-04-12T13:39:35;13.50;99.90
13682;DHT22;6913;49.892;7.936;2023-04-12T13:42:04;13.70;99.90
13682;DHT22;6913;49.892;7.936;2023-04-12T13:44:31;14.00;99.90
13682;DHT22;6913;49.892;7.936;2023-04-12T13:46:59;14.40;99.90
13682;DHT22;6913;49.892;7.936;2023-04-12T13:49:26;14.60;99.90
13682;DHT22;6913;49.892;7.936;2023-04-12T13:51:53;14.40;99.90
13682;DHT22;6913;49.892;7.936;2023-04-12T13:54:19;14.30;99.90
13682;DHT22;6913;49.892;7.936;2023-04-12T13:56:46;14.10;99.90
13682;DHT22;6913;49.892;7.936;2023-04-12T13:59:13;13.90;99.90
13682;DHT22;6913;49.892;7.936;2023-04-12T14:01:40;13.60;99.90
13682;DHT22;6913;49.892;7.936;2023-04-12T14:04:08;13.60;99.90
13682;DHT22;6913;49.892;7.936;2023-04-12T14:06:35;13.50;99.90
13682;DHT22;6913;49.892;7.936;2023-04-12T14:09:03;13.70;99.90
13682;DHT22;6913;49.892;7.936;2023-04-12T14:11:43;13.40;99.90
13682;DHT22;6913;49.892;7.936;2023-04-12T14:14:10;13.30;99.90
13682;DHT22;6913;49.892;7.936;2023-04-12T14:16:37;12.80;99.90
13682;DHT22;6913;49.892;7.936;2023-04-12T14:19:04;13.20;99.90
13682;DHT22;6913;49.892;7.936;2023-04-12T14:21:32;13.20;99.90
13682;DHT22;6913;49.892;7.936;2023-04-12T14:23:59;13.40;99.90
13682;DHT22;6913;49.892;7.936;2023-04-12T14:26:26;13.40;99.90
13682;DHT22;6913;49.892;7.936;2023-04-12T14:28:53;13.60;99.90
13682;DHT22;6913;49.892;7.936;2023-04-12T14:31:19;13.90;99.90
13682;DHT22;6913;49.892;7.936;2023-04-12T14:33:46;13.70;99.90
13682;DHT22;6913;49.892;7.936;2023-04-12T14:36:13;13.80;99.90
13682;DHT22;6913;49.892;7.936;2023-04-12T14:38:41;13.70;99.90
13682;DHT22;6913;49.892;7.936;2023-04-12T14:41:08;13.70;99.90
13682;DHT22;6913;49.892;7.936;2023-04-12T14:43:35;13.60;99.90
13682;DHT22;6913;49.892;7.936;2023-04-12T14:46:02;13.30;99.90
13682;DHT22;6913;49.892;7.936;2023-04-12T14:50:56;12.80;99.90
13682;DHT22;6913;49.892;7.936;2023-04-12T14:53:23;12.90;99.90
13682;DHT22;6913;49.892;7.936;2023-04-12T14:55:51;12.40;99.90
13682;DHT22;6913;49.892;7.936;2023-04-12T14:58:18;12.60;99.90
13682;DHT22;6913;49.892;7.936;2023-04-12T15:00:44;12.80;99.90
13682;DHT22;6913;49.892;7.936;2023-04-12T15:03:11;13.20;99.90
13682;DHT22;6913;49.892;7.936;2023-04-12T15:05:38;13.20;99.90
13682;DHT22;6913;49.892;7.936;2023-04-12T15:08:05;13.20;99.90
13682;DHT22;6913;49.892;7.936;2023-04-12T15:10:31;13.30;99.90
13682;DHT22;6913;49.892;7.936;2023-04-12T15:13:00;13.30;99.90
13682;DHT22;6913;49.892;7.936;2023-04-12T15:15:26;13.60;99.90
13682;DHT22;6913;49.892;7.936;2023-04-12T15:17:53;13.90;99.90
13682;DHT22;6913;49.892;7.936;2023-04-12T15:20:20;13.70;99.90
13682;DHT22;6913;49.892;7.936;2023-04-12T15:22:47;13.70;99.90
13682;DHT22;6913;49.892;7.936;2023-04-12T15:25:14;13.80;99.90
13682;DHT22;6913;49.892;7.936;2023-04-12T15:27:40;13.90;99.90
13682;DHT22;6913;49.892;7.936;2023-04-12T15:30:10;14.00;99.90
13682;DHT22;6913;49.892;7.936;2023-04-12T15:32:39;14.10;99.90
13682;DHT22;6913;49.892;7.936;2023-04-12T15:35:07;14.00;99.90
13682;DHT22;6913;49.892;7.936;2023-04-12T15:37:34;14.00;99.90
13682;DHT22;6913;49.892;7.936;2023-04-12T15:40:04;14.10;99.90
13682;DHT22;6913;49.892;7.936;2023-04-12T15:42:38;14.20;99.90
13682;DHT22;6913;49.892;7.936;2023-04-12T15:45:06;14.10;99.90
13682;DHT22;6913;49.892;7.936;2023-04-12T15:47:35;14.10;99.90
13682;DHT22;6913;49.892;7.936;2023-04-12T15:50:02;14.30;99.90
13682;DHT22;6913;49.892;7.936;2023-04-12T15:52:28;14.30;99.90
13682;DHT22;6913;49.892;7.936;2023-04-12T15:54:55;14.40;99.90
13682;DHT22;6913;49.892;7.936;2023-04-12T15:57:22;14.40;99.90
13682;DHT22;6913;49.892;7.936;2023-04-12T15:59:49;14.50;99.90
13682;DHT22;6913;49.892;7.936;2023-04-12T16:02:17;14.60;97.60
13682;DHT22;6913;49.892;7.936;2023-04-12T16:04:45;14.60;96.90
13682;DHT22;6913;49.892;7.936;2023-04-12T16:07:16;14.60;99.60